Time;durP1;ratioP1;P1;durP2;ratioP2;P2;SDS_P1;SDS_P2;PMS_P1;PMS_P2;Temp;Humidity;BMP_temperature;BMP_pressure;BME280_temperature;BME280_humidity;BME280_pressure;Samples;Min_cycle;Max_cycle;Signal;HPM_P1;HPM_P2
2023/04/03 00:00:20;;;;;;;3.70;2.13;;;13.10;96.70;;;;;;5144355;27;20039;-73
2023/04/03 00:02:48;;;;;;;4.00;2.13;;;13.00;96.70;;;;;;5143013;27;20077;-73
2023/04/03 00:05:17;;;;;;;4.55;1.90;;;13.00;96.70;;;;;;5142940;27;20053;-73
2023/04/03 00:07:46;;;;;;;2.95;1.98;;;12.90;96.70;;;;;;5142206;27;20050;-72
2023/04/03 00:10:16;;;;;;;4.00;2.10;;;13.10;96.70;;;;;;5140542;27;20031;-73
2023/04/03 00:12:45;;;;;;;2.78;1.80;;;12.90;96.70;;;;;;5143119;27;20070;-73
2023/04/03 00:15:13;;;;;;;3.45;2.13;;;12.90;96.70;;;;;;5144217;27;20629;-73
2023/04/03 00:17:41;;;;;;;2.78;1.67;;;13.00;96.70;;;;;;5141051;27;20131;-73
2023/04/03 00:20:10;;;;;;;2.45;1.85;;;12.70;96.70;;;;;;5143798;27;20050;-73
2023/04/03 00:22:39;;;;;;;2.80;2.10;;;12.70;96.70;;;;;;5142312;27;20042;-73
2023/04/03 00:25:09;;;;;;;3.95;1.50;;;12.80;96.70;;;;;;5143174;27;20483;-73
2023/04/03 00:27:40;;;;;;;3.15;1.98;;;12.80;96.70;;;;;;5134510;27;20050;-74
2023/04/03 00:30:13;;;;;;;3.55;2.20;;;12.80;96.70;;;;;;5143240;27;20404;-73
2023/04/03 00:32:41;;;;;;;4.55;2.05;;;12.90;96.70;;;;;;5142399;27;20054;-73
2023/04/03 00:35:10;;;;;;;4.70;2.08;;;12.90;96.70;;;;;;5143635;27;20053;-73
2023/04/03 00:37:39;;;;;;;2.50;1.77;;;12.90;96.70;;;;;;5139348;27;20118;-73
2023/04/03 00:40:10;;;;;;;2.15;1.48;;;12.70;96.70;;;;;;5142412;27;20050;-73
2023/04/03 00:42:41;;;;;;;2.97;1.50;;;12.80;96.70;;;;;;5141197;27;20142;-73
2023/04/03 00:45:30;;;;;;;3.55;1.48;;;12.60;96.70;;;;;;5141090;27;20582;-73
2023/04/03 00:48:02;;;;;;;2.13;1.42;;;12.60;96.70;;;;;;5134084;27;20061;-73
2023/04/03 00:50:35;;;;;;;2.65;1.23;;;12.60;96.70;;;;;;5112468;27;20047;-73
2023/04/03 00:53:06;;;;;;;1.95;1.17;;;12.60;96.70;;;;;;5138555;27;20081;-73
2023/04/03 00:55:37;;;;;;;2.45;1.52;;;12.70;96.70;;;;;;5142542;27;20042;-73
2023/04/03 00:58:09;;;;;;;3.28;1.60;;;12.70;96.70;;;;;;5143528;27;20096;-74
2023/04/03 01:00:41;;;;;;;1.60;1.30;;;12.70;96.70;;;;;;5142184;27;20516;-73
2023/04/03 01:03:10;;;;;;;1.75;1.10;;;12.60;96.70;;;;;;5142435;27;20137;-74
2023/04/03 01:05:40;;;;;;;3.80;1.55;;;12.50;96.70;;;;;;5142195;27;20403;-73
2023/04/03 01:08:09;;;;;;;2.83;1.58;;;12.50;96.70;;;;;;5140662;27;20039;-73
2023/04/03 01:10:37;;;;;;;2.17;1.20;;;12.50;96.70;;;;;;5139642;27;20039;-73
2023/04/03 01:13:21;;;;;;;2.65;1.80;;;12.40;96.70;;;;;;5140221;27;20039;-73
2023/04/03 01:15:51;;;;;;;3.47;1.67;;;12.40;96.70;;;;;;5121810;27;20046;-73
2023/04/03 01:18:20;;;;;;;3.95;1.45;;;12.40;96.70;;;;;;5143472;27;20066;-73
2023/04/03 01:21:23;;;;;;;2.13;1.50;;;12.40;96.70;;;;;;5141688;27;20050;-74
2023/04/03 01:24:11;;;;;;;4.55;1.50;;;12.50;96.70;;;;;;5143135;27;20095;-73
2023/04/03 01:26:40;;;;;;;4.03;1.58;;;12.40;96.70;;;;;;5135456;27;20038;-73
2023/04/03 01:29:11;;;;;;;3.00;1.65;;;12.40;96.70;;;;;;5141603;27;20039;-74
2023/04/03 01:31:50;;;;;;;5.28;2.28;;;12.40;96.70;;;;;;5140553;27;20457;-73
2023/04/03 01:34:33;;;;;;;4.85;1.88;;;12.30;96.70;;;;;;5140940;27;20066;-73
2023/04/03 01:37:03;;;;;;;3.00;1.50;;;12.20;96.70;;;;;;5120890;28;20043;-73
2023/04/03 01:39:31;;;;;;;2.38;1.55;;;12.30;96.70;;;;;;5138095;27;20035;-74
2023/04/03 01:42:00;;;;;;;2.72;1.60;;;12.10;96.70;;;;;;5145724;27;20142;-73
2023/04/03 01:44:33;;;;;;;2.38;1.73;;;12.20;96.70;;;;;;5126302;27;20045;-73
2023/04/03 01:47:07;;;;;;;3.08;1.30;;;12.20;96.70;;;;;;5145423;27;20088;-73
2023/04/03 01:49:36;;;;;;;4.20;1.63;;;12.10;96.70;;;;;;5146049;27;20507;-73
2023/04/03 01:52:05;;;;;;;2.60;1.40;;;12.10;96.70;;;;;;5128724;27;20042;-73
2023/04/03 01:54:33;;;;;;;2.42;1.48;;;12.10;96.70;;;;;;5145010;27;20066;-73
2023/04/03 01:57:02;;;;;;;3.63;1.40;;;12.10;96.70;;;;;;5125884;27;20464;-73
2023/04/03 01:59:31;;;;;;;2.60;1.45;;;12.10;96.70;;;;;;5144092;27;20135;-73
2023/04/03 02:01:59;;;;;;;2.65;1.40;;;12.00;96.70;;;;;;5145229;27;20039;-73
2023/04/03 02:04:29;;;;;;;2.03;1.27;;;11.90;96.70;;;;;;5145657;27;20069;-72
2023/04/03 02:06:58;;;;;;;4.47;1.60;;;12.00;96.70;;;;;;5127922;27;20541;-73
2023/04/03 02:09:26;;;;;;;3.53;1.45;;;11.90;96.70;;;;;;5144915;27;20396;-73
2023/04/03 02:11:55;;;;;;;2.13;1.15;;;11.80;96.70;;;;;;5145112;27;20043;-73
2023/04/03 02:14:23;;;;;;;1.70;1.10;;;11.80;96.70;;;;;;5144292;27;20441;-72
2023/04/03 02:16:52;;;;;;;2.22;1.30;;;11.80;96.70;;;;;;5144962;27;20043;-72
2023/04/03 02:19:22;;;;;;;4.05;1.27;;;11.70;96.70;;;;;;5145001;27;20121;-73
2023/04/03 02:21:52;;;;;;;2.03;1.30;;;11.90;96.70;;;;;;5143908;27;20061;-73
2023/04/03 02:24:20;;;;;;;2.40;1.50;;;12.00;96.70;;;;;;5136572;27;20035;-73
2023/04/03 02:26:49;;;;;;;3.92;1.30;;;12.00;96.70;;;;;;5145423;27;20504;-73
2023/04/03 02:29:17;;;;;;;3.53;1.70;;;12.10;96.70;;;;;;5144718;27;20624;-73
2023/04/03 02:31:45;;;;;;;3.67;1.45;;;12.10;96.70;;;;;;5146337;27;20129;-73
2023/04/03 02:34:15;;;;;;;3.95;1.67;;;12.00;96.70;;;;;;5146761;27;20432;-73
2023/04/03 02:36:44;;;;;;;2.80;1.23;;;12.00;96.70;;;;;;5142800;27;20043;-73
2023/04/03 02:39:16;;;;;;;2.47;1.30;;;12.00;96.70;;;;;;5127898;27;20077;-73
2023/04/03 02:41:45;;;;;;;2.63;1.40;;;11.80;96.70;;;;;;5144251;27;20046;-73
2023/04/03 02:44:19;;;;;;;2.28;1.27;;;11.80;96.70;;;;;;5128377;27;20062;-73
2023/04/03 02:46:47;;;;;;;2.78;1.60;;;11.90;96.70;;;;;;5144350;27;20538;-73
2023/04/03 02:49:15;;;;;;;3.70;1.67;;;11.80;96.70;;;;;;5137214;27;20046;-74
2023/04/03 02:51:43;;;;;;;3.40;1.50;;;11.70;96.70;;;;;;5143322;27;20438;-73
2023/04/03 02:54:11;;;;;;;3.83;1.40;;;11.60;96.70;;;;;;5144462;27;20034;-74
2023/04/03 02:56:45;;;;;;;2.78;1.52;;;11.70;96.70;;;;;;5114440;27;20099;-73
2023/04/03 02:59:13;;;;;;;4.28;1.58;;;11.80;96.70;;;;;;5137503;27;20050;-73
2023/04/03 03:01:41;;;;;;;2.20;1.20;;;11.90;96.70;;;;;;5143995;27;20099;-73
2023/04/03 03:04:09;;;;;;;4.63;1.50;;;11.80;96.70;;;;;;5143938;27;20046;-73
2023/04/03 03:06:37;;;;;;;3.28;1.30;;;11.80;96.70;;;;;;5139088;27;20260;-73
2023/04/03 03:09:05;;;;;;;3.47;1.30;;;11.80;96.70;;;;;;5145872;27;20054;-74
2023/04/03 03:11:33;;;;;;;3.45;1.45;;;11.80;96.70;;;;;;5143953;27;20043;-73
2023/04/03 03:14:04;;;;;;;1.67;1.20;;;11.70;96.70;;;;;;5143971;27;20118;-72
2023/04/03 03:16:33;;;;;;;6.05;1.83;;;11.60;96.70;;;;;;5143552;27;20035;-73
2023/04/03 03:19:01;;;;;;;2.90;1.42;;;11.40;96.70;;;;;;5132492;27;20484;-73
2023/04/03 03:21:29;;;;;;;2.22;1.65;;;11.40;96.70;;;;;;5126438;27;20051;-73
2023/04/03 03:23:56;;;;;;;1.95;1.40;;;11.50;96.70;;;;;;5126273;27;20074;-73
2023/04/03 03:26:24;;;;;;;4.05;1.83;;;11.60;96.70;;;;;;5143794;27;20046;-73
2023/04/03 03:28:52;;;;;;;2.40;1.48;;;11.70;96.70;;;;;;5139973;27;20047;-72
2023/04/03 03:31:21;;;;;;;3.42;1.60;;;11.70;96.70;;;;;;5143014;27;20771;-72
2023/04/03 03:33:49;;;;;;;3.80;1.98;;;11.60;96.70;;;;;;5141168;27;20046;-72
2023/04/03 03:36:17;;;;;;;4.80;1.75;;;11.40;96.70;;;;;;5143781;27;20496;-73
2023/04/03 03:38:45;;;;;;;3.05;1.77;;;11.40;96.70;;;;;;5143301;27;20046;-74
2023/04/03 03:41:13;;;;;;;3.28;1.80;;;11.40;96.70;;;;;;5143187;27;20158;-74
2023/04/03 03:43:43;;;;;;;4.25;1.60;;;11.50;96.70;;;;;;5143317;27;20133;-72
2023/04/03 03:46:13;;;;;;;2.92;1.30;;;11.60;96.70;;;;;;5143503;27;20058;-72
2023/04/03 03:48:42;;;;;;;3.00;1.65;;;11.60;96.70;;;;;;5143790;27;20042;-73
2023/04/03 03:51:10;;;;;;;2.88;1.40;;;11.50;96.70;;;;;;5143316;27;20943;-74
2023/04/03 03:53:39;;;;;;;3.28;1.60;;;11.60;96.70;;;;;;5144585;27;20729;-73
2023/04/03 03:56:11;;;;;;;2.40;1.52;;;11.50;96.70;;;;;;5140980;27;20049;-72
2023/04/03 03:58:40;;;;;;;3.30;1.48;;;11.40;96.70;;;;;;5137527;27;20182;-73
2023/04/03 04:01:08;;;;;;;14.57;3.22;;;11.50;96.70;;;;;;5143190;27;20057;-74
2023/04/03 04:03:43;;;;;;;1.83;1.33;;;11.40;96.70;;;;;;5124632;27;20684;-73
2023/04/03 04:06:14;;;;;;;4.82;1.83;;;11.30;96.70;;;;;;5142811;27;20070;-73
2023/04/03 04:08:42;;;;;;;2.00;1.23;;;11.10;96.70;;;;;;5142077;27;20047;-72
2023/04/03 04:11:11;;;;;;;4.47;1.63;;;11.30;96.70;;;;;;5142734;27;20054;-73
2023/04/03 04:13:40;;;;;;;2.63;1.38;;;11.10;96.70;;;;;;5142844;27;20097;-72
2023/04/03 04:16:10;;;;;;;2.75;1.92;;;11.20;96.70;;;;;;5143212;27;20047;-73
2023/04/03 04:18:38;;;;;;;4.70;1.52;;;11.30;96.70;;;;;;5142659;27;20053;-73
2023/04/03 04:21:07;;;;;;;4.10;1.70;;;11.30;96.70;;;;;;5125467;27;20046;-73
2023/04/03 04:23:36;;;;;;;3.35;1.60;;;11.30;96.70;;;;;;5141858;27;20134;-72
2023/04/03 04:26:04;;;;;;;2.90;1.67;;;11.20;96.70;;;;;;5125641;27;20042;-73
2023/04/03 04:28:35;;;;;;;3.63;1.55;;;11.30;96.70;;;;;;5125136;27;20534;-73
2023/04/03 04:31:04;;;;;;;3.63;1.73;;;11.40;96.70;;;;;;5142687;27;20054;-73
2023/04/03 04:33:32;;;;;;;4.07;1.95;;;11.40;96.70;;;;;;5142680;27;20543;-73
2023/04/03 04:36:03;;;;;;;2.47;1.75;;;11.30;96.70;;;;;;5142066;27;20046;-72
2023/04/03 04:38:33;;;;;;;3.78;1.88;;;11.20;96.70;;;;;;5125595;27;20050;-73
2023/04/03 04:41:01;;;;;;;3.00;1.88;;;11.20;96.70;;;;;;5125066;27;20051;-73
2023/04/03 04:43:29;;;;;;;7.93;1.85;;;11.30;96.70;;;;;;5142361;27;20046;-73
2023/04/03 04:46:04;;;;;;;6.03;2.60;;;11.20;96.70;;;;;;5143662;27;20151;-73
2023/04/03 04:48:36;;;;;;;5.72;3.10;;;11.20;96.70;;;;;;5142874;27;20142;-73
2023/04/03 04:51:05;;;;;;;5.15;3.00;;;11.40;96.70;;;;;;5142336;27;20441;-73
2023/04/03 04:53:36;;;;;;;5.57;2.95;;;11.50;96.70;;;;;;5137363;27;20054;-73
2023/04/03 04:56:05;;;;;;;4.88;3.17;;;11.50;96.70;;;;;;5143916;27;20042;-73
2023/04/03 04:58:34;;;;;;;4.80;3.28;;;11.40;96.70;;;;;;5130671;27;20047;-73
2023/04/03 05:01:18;;;;;;;5.47;3.15;;;11.50;96.70;;;;;;5137620;27;20047;-73
2023/04/03 05:04:10;;;;;;;5.00;2.60;;;11.60;96.70;;;;;;5128505;27;20403;-74
2023/04/03 05:06:38;;;;;;;5.00;2.22;;;11.40;96.70;;;;;;5141583;27;20587;-74
2023/04/03 05:09:12;;;;;;;3.83;2.17;;;11.50;96.70;;;;;;5125084;27;20055;-73
2023/04/03 05:11:43;;;;;;;4.72;2.20;;;11.60;96.70;;;;;;5142124;27;20046;-73
2023/04/03 05:14:12;;;;;;;6.80;2.17;;;11.70;96.70;;;;;;5141593;27;20043;-73
2023/04/03 05:16:41;;;;;;;8.98;2.45;;;11.70;96.70;;;;;;5146571;27;20058;-73
2023/04/03 05:19:09;;;;;;;7.32;2.47;;;11.80;96.70;;;;;;5147406;27;20133;-73
2023/04/03 05:21:37;;;;;;;7.88;3.05;;;11.80;96.70;;;;;;5128563;27;20065;-72
2023/04/03 05:24:12;;;;;;;11.18;2.78;;;11.90;96.70;;;;;;5146449;27;20054;-72
2023/04/03 05:26:42;;;;;;;6.70;2.28;;;11.90;96.70;;;;;;5129712;27;20042;-71
2023/04/03 05:29:12;;;;;;;9.82;2.10;;;12.00;96.70;;;;;;5128470;27;20582;-73
2023/04/03 05:31:41;;;;;;;5.20;1.85;;;12.00;96.70;;;;;;5147620;27;20031;-72
2023/04/03 05:34:11;;;;;;;3.83;1.80;;;12.10;96.70;;;;;;5146394;27;20045;-72
2023/04/03 05:36:40;;;;;;;6.60;1.88;;;12.20;96.70;;;;;;5146061;27;20039;-73
2023/04/03 05:39:09;;;;;;;5.57;2.00;;;12.20;96.70;;;;;;5146153;27;20157;-73
2023/04/03 05:41:42;;;;;;;3.22;1.48;;;12.20;96.70;;;;;;5144835;27;20138;-73
2023/04/03 05:44:10;;;;;;;5.75;1.45;;;12.30;96.70;;;;;;5144776;27;20567;-72
2023/04/03 05:46:38;;;;;;;3.00;1.10;;;12.30;96.70;;;;;;5145935;27;20057;-73
2023/04/03 05:49:08;;;;;;;2.28;1.35;;;12.30;96.70;;;;;;5145186;27;20145;-73
2023/04/03 05:51:38;;;;;;;1.77;1.02;;;12.40;96.70;;;;;;5145204;27;20123;-73
2023/04/03 05:54:28;;;;;;;2.63;1.13;;;12.40;96.70;;;;;;5137010;27;20043;-73
2023/04/03 05:57:04;;;;;;;3.38;1.17;;;12.50;96.70;;;;;;5145441;27;20047;-72
2023/04/03 05:59:32;;;;;;;4.75;1.10;;;12.60;96.70;;;;;;5145237;27;20049;-73
2023/04/03 06:02:01;;;;;;;3.72;1.55;;;12.60;96.70;;;;;;5145561;27;20042;-73
2023/04/03 06:04:28;;;;;;;3.10;1.40;;;12.70;96.70;;;;;;5145244;27;20039;-73
2023/04/03 06:06:57;;;;;;;3.65;1.23;;;12.80;96.70;;;;;;5145371;27;20047;-72
2023/04/03 06:09:28;;;;;;;6.68;1.40;;;12.80;96.70;;;;;;5128417;27;20043;-73
2023/04/03 06:11:58;;;;;;;2.72;1.00;;;12.90;96.70;;;;;;5144269;27;20054;-73
2023/04/03 06:14:29;;;;;;;4.32;1.23;;;13.00;96.70;;;;;;5137819;27;20051;-72
2023/04/03 06:16:57;;;;;;;12.20;1.95;;;13.10;96.70;;;;;;5144623;27;20050;-73
2023/04/03 06:19:25;;;;;;;4.05;1.65;;;13.10;96.70;;;;;;5146932;27;20089;-73
2023/04/03 06:21:55;;;;;;;2.63;1.10;;;13.20;96.70;;;;;;5144979;27;20129;-73
2023/04/03 06:24:25;;;;;;;6.25;1.08;;;13.20;96.70;;;;;;5145451;27;20158;-73
2023/04/03 06:26:53;;;;;;;2.30;0.75;;;13.30;96.70;;;;;;5143357;27;20045;-73
2023/04/03 06:29:21;;;;;;;2.97;0.88;;;13.40;96.70;;;;;;5137774;27;20472;-73
2023/04/03 06:31:50;;;;;;;3.20;0.90;;;13.50;96.70;;;;;;5136777;27;20042;-73
2023/04/03 06:34:18;;;;;;;1.85;0.90;;;13.50;96.70;;;;;;5128034;27;20039;-73
2023/04/03 06:36:46;;;;;;;2.58;0.90;;;13.60;96.70;;;;;;5127697;27;20047;-73
2023/04/03 06:39:16;;;;;;;2.85;0.73;;;13.60;96.70;;;;;;5143672;27;20041;-73
2023/04/03 06:41:44;;;;;;;2.38;0.90;;;13.70;96.70;;;;;;5144217;27;20046;-73
2023/04/03 06:44:13;;;;;;;2.50;0.70;;;13.70;96.70;;;;;;5139987;27;20511;-73
2023/04/03 06:46:41;;;;;;;2.80;0.85;;;13.80;96.70;;;;;;5146023;27;20515;-73
2023/04/03 06:49:10;;;;;;;1.60;0.75;;;13.90;96.70;;;;;;5144232;27;20038;-73
2023/04/03 06:51:58;;;;;;;2.17;0.88;;;13.90;96.70;;;;;;5119320;27;20684;-73
2023/04/03 06:54:29;;;;;;;3.97;0.82;;;13.90;96.70;;;;;;5086526;27;20075;-73
2023/04/03 06:56:57;;;;;;;2.78;0.63;;;14.00;96.70;;;;;;5087862;27;20050;-73
2023/04/03 06:59:25;;;;;;;3.40;0.70;;;14.10;96.70;;;;;;5104960;27;20062;-74
2023/04/03 07:01:53;;;;;;;1.88;0.73;;;14.10;96.70;;;;;;5087749;27;20051;-73
2023/04/03 07:04:22;;;;;;;2.42;0.35;;;14.10;96.70;;;;;;5087225;28;20508;-73
2023/04/03 07:06:50;;;;;;;2.90;0.60;;;14.20;96.70;;;;;;5121758;27;20615;-74
2023/04/03 07:09:18;;;;;;;1.40;0.40;;;14.20;96.70;;;;;;5116489;27;20058;-73
2023/04/03 07:11:46;;;;;;;5.85;1.88;;;14.20;96.70;;;;;;5084194;28;20463;-73
2023/04/03 07:14:14;;;;;;;4.70;0.63;;;14.30;96.70;;;;;;5117382;27;20714;-73
2023/04/03 07:16:42;;;;;;;1.58;0.45;;;14.30;96.70;;;;;;5104899;27;20049;-73
2023/04/03 07:19:10;;;;;;;2.97;0.57;;;14.30;96.70;;;;;;5103899;27;20147;-73
2023/04/03 07:21:41;;;;;;;1.52;0.52;;;14.40;96.70;;;;;;5104035;27;20066;-72
2023/04/03 07:24:09;;;;;;;1.77;0.63;;;14.40;96.70;;;;;;5141432;27;20728;-74
2023/04/03 07:26:42;;;;;;;2.33;0.47;;;14.50;96.70;;;;;;5145463;27;20045;-73
2023/04/03 07:29:10;;;;;;;0.88;0.30;;;14.50;96.70;;;;;;5137522;27;20737;-73
2023/04/03 07:32:06;;;;;;;6.10;0.50;;;14.60;96.70;;;;;;5141288;27;20081;-73
2023/04/03 07:34:35;;;;;;;8.13;1.20;;;14.60;96.70;;;;;;5143324;27;20455;-73
2023/04/03 07:37:04;;;;;;;3.17;0.68;;;14.60;96.70;;;;;;5144905;27;20047;-73
2023/04/03 07:39:32;;;;;;;1.70;0.30;;;14.70;96.70;;;;;;5143615;27;20876;-73
2023/04/03 07:42:01;;;;;;;5.30;0.55;;;14.70;96.70;;;;;;5142939;27;20050;-73
2023/04/03 07:44:29;;;;;;;2.08;0.80;;;14.70;96.70;;;;;;5144147;27;20077;-73
2023/04/03 07:46:57;;;;;;;1.10;0.43;;;14.80;96.70;;;;;;5122769;27;20062;-73
2023/04/03 07:49:25;;;;;;;3.45;0.57;;;14.90;96.70;;;;;;5139280;27;20042;-73
2023/04/03 07:51:54;;;;;;;3.50;0.55;;;15.00;96.70;;;;;;5145067;27;20403;-73
2023/04/03 07:54:23;;;;;;;1.20;0.40;;;15.00;96.70;;;;;;5144447;27;20075;-74
2023/04/03 07:56:51;;;;;;;3.35;0.63;;;15.00;96.70;;;;;;5145141;27;20045;-73
2023/04/03 07:59:19;;;;;;;1.25;0.50;;;15.00;96.70;;;;;;5143361;27;20557;-74
2023/04/03 08:01:47;;;;;;;2.30;0.50;;;14.90;96.70;;;;;;5143507;27;20127;-74
2023/04/03 08:04:15;;;;;;;3.17;0.50;;;14.90;96.70;;;;;;5142801;27;20041;-73
2023/04/03 08:06:43;;;;;;;3.92;0.45;;;14.90;96.70;;;;;;5139576;27;20060;-73
2023/04/03 08:09:14;;;;;;;1.80;0.50;;;15.00;96.70;;;;;;5140196;27;20115;-73
2023/04/03 08:11:48;;;;;;;4.20;0.63;;;15.00;96.70;;;;;;5121369;27;20050;-73
2023/04/03 08:14:16;;;;;;;1.52;0.68;;;15.00;96.70;;;;;;5138535;27;20047;-73
2023/04/03 08:16:45;;;;;;;1.80;0.40;;;15.10;96.70;;;;;;5143031;27;20123;-73
2023/04/03 08:19:16;;;;;;;0.82;0.35;;;15.10;96.70;;;;;;5125314;27;20473;-73
2023/04/03 08:21:53;;;;;;;1.90;0.55;;;15.20;96.70;;;;;;5142556;27;20484;-73
2023/04/03 08:24:21;;;;;;;3.03;0.50;;;15.20;96.70;;;;;;5143982;27;20035;-73
2023/04/03 08:26:50;;;;;;;2.50;0.52;;;15.20;96.70;;;;;;5143343;27;20050;-74
2023/04/03 08:29:18;;;;;;;4.38;0.60;;;15.30;96.70;;;;;;5140737;27;20038;-73
2023/04/03 08:31:46;;;;;;;1.45;0.40;;;15.40;96.70;;;;;;5143116;27;20066;-73
2023/04/03 08:34:15;;;;;;;2.08;0.50;;;15.50;96.70;;;;;;5142416;27;20050;-73
2023/04/03 08:36:43;;;;;;;2.25;0.55;;;15.60;96.70;;;;;;5120122;27;20074;-73
2023/04/03 08:39:11;;;;;;;1.77;0.40;;;15.60;96.70;;;;;;5135504;27;20100;-73
2023/04/03 08:41:47;;;;;;;0.60;0.25;;;15.60;96.70;;;;;;5125136;27;20427;-75
2023/04/03 08:44:23;;;;;;;0.95;0.30;;;15.70;96.70;;;;;;5139757;27;20039;-73
2023/04/03 08:47:09;;;;;;;0.68;0.30;;;15.70;96.70;;;;;;5141811;27;20050;-72
2023/04/03 08:49:40;;;;;;;1.08;0.35;;;15.70;96.70;;;;;;5137278;27;20031;-73
2023/04/03 08:52:12;;;;;;;1.30;0.55;;;15.70;96.70;;;;;;5144072;27;20047;-72
2023/04/03 08:54:50;;;;;;;1.55;0.40;;;15.70;96.70;;;;;;5142173;27;20050;-72
2023/04/03 08:57:26;;;;;;;3.20;0.70;;;15.80;96.70;;;;;;5135594;27;20081;-74
2023/04/03 08:59:57;;;;;;;1.63;0.40;;;15.90;96.70;;;;;;5143599;27;20582;-73
2023/04/03 09:02:32;;;;;;;1.73;0.38;;;16.00;96.70;;;;;;5136516;27;20050;-73
2023/04/03 09:05:02;;;;;;;0.77;0.40;;;16.00;96.70;;;;;;5143738;27;20173;-74
2023/04/03 09:07:36;;;;;;;0.75;0.50;;;16.00;96.70;;;;;;5142592;27;20126;-73
2023/04/03 09:10:05;;;;;;;3.65;0.40;;;16.20;96.70;;;;;;5142417;27;20047;-73
2023/04/03 09:12:38;;;;;;;1.20;0.30;;;16.10;96.70;;;;;;5142663;27;20042;-73
2023/04/03 09:15:17;;;;;;;2.00;0.50;;;16.20;96.70;;;;;;5142111;27;20453;-73
2023/04/03 09:18:04;;;;;;;0.73;0.45;;;16.20;96.70;;;;;;5136878;27;20091;-74
2023/04/03 09:20:43;;;;;;;3.42;0.57;;;16.20;96.70;;;;;;5142885;27;20507;-72
2023/04/03 09:23:22;;;;;;;5.50;0.82;;;16.30;96.70;;;;;;5140876;27;20096;-73
2023/04/03 09:25:54;;;;;;;11.27;0.95;;;16.40;96.70;;;;;;5142024;27;20662;-73
2023/04/03 09:28:22;;;;;;;1.27;0.40;;;16.30;96.70;;;;;;5125294;27;20038;-74
2023/04/03 09:30:51;;;;;;;4.18;0.57;;;16.30;96.70;;;;;;5141995;27;20522;-73
2023/04/03 09:33:30;;;;;;;3.55;0.60;;;16.30;96.70;;;;;;5140126;27;20035;-73
2023/04/03 09:35:58;;;;;;;2.50;0.50;;;16.50;96.70;;;;;;5134017;27;20432;-73
2023/04/03 09:38:26;;;;;;;2.83;0.60;;;16.50;96.70;;;;;;5141491;27;20484;-73
2023/04/03 09:41:05;;;;;;;2.55;0.63;;;16.50;96.70;;;;;;5117177;27;20137;-73
2023/04/03 09:43:34;;;;;;;5.55;0.68;;;16.60;96.70;;;;;;5140769;27;20436;-74
2023/04/03 09:46:28;;;;;;;2.53;0.40;;;16.70;96.70;;;;;;5123972;27;20154;-75
2023/04/03 09:48:58;;;;;;;0.80;0.30;;;16.70;96.70;;;;;;5141296;27;20141;-73
2023/04/03 09:51:36;;;;;;;1.30;0.30;;;16.70;96.70;;;;;;5124756;27;20047;-73
2023/04/03 09:54:32;;;;;;;2.40;0.40;;;16.80;96.70;;;;;;5142856;27;20493;-73
2023/04/03 09:57:06;;;;;;;2.35;0.50;;;16.80;96.70;;;;;;5141799;27;20658;-73
2023/04/03 09:59:34;;;;;;;2.30;0.57;;;17.00;96.70;;;;;;5136234;27;20508;-73
2023/04/03 10:02:22;;;;;;;1.73;0.28;;;17.10;96.70;;;;;;5121119;27;20335;-74
2023/04/03 10:04:50;;;;;;;1.65;0.30;;;17.20;96.70;;;;;;5143224;27;20043;-73
2023/04/03 10:07:36;;;;;;;1.23;0.30;;;17.30;96.70;;;;;;5145820;27;20034;-73
2023/04/03 10:10:19;;;;;;;1.95;0.63;;;17.40;96.70;;;;;;5146617;27;20473;-73
2023/04/03 10:12:48;;;;;;;2.53;0.90;;;17.60;96.70;;;;;;5146928;27;20117;-74
2023/04/03 10:15:21;;;;;;;2.05;0.77;;;17.70;96.70;;;;;;5144386;27;20436;-73
2023/04/03 10:17:57;;;;;;;2.25;0.60;;;17.80;96.70;;;;;;5135978;27;20469;-73
2023/04/03 10:20:27;;;;;;;;;;;17.90;96.70;;;;;;5145481;27;20563;-74
2023/04/03 10:23:03;;;;;;;1.13;0.30;;;17.80;96.70;;;;;;5146147;27;19922;-73
2023/04/03 10:25:39;;;;;;;1.63;0.40;;;17.60;96.70;;;;;;5145817;27;20060;-73
2023/04/03 10:28:14;;;;;;;2.55;0.57;;;17.60;96.70;;;;;;5137416;27;20046;-73
2023/04/03 10:30:50;;;;;;;3.15;0.40;;;17.90;96.70;;;;;;5144844;27;20046;-73
2023/04/03 10:33:52;;;;;;;3.87;0.73;;;17.90;96.70;;;;;;5145319;27;20043;-73
2023/04/03 10:36:33;;;;;;;1.75;0.50;;;18.00;96.70;;;;;;5137333;27;20049;-73
2023/04/03 10:39:10;;;;;;;2.47;0.50;;;18.10;96.70;;;;;;5144593;27;20559;-73
2023/04/03 10:41:52;;;;;;;3.95;0.60;;;18.20;96.70;;;;;;5136593;27;20053;-73
2023/04/03 10:44:42;;;;;;;2.58;0.47;;;18.30;96.70;;;;;;5129071;27;20521;-74
2023/04/03 10:47:16;;;;;;;1.38;0.70;;;18.60;96.70;;;;;;5145265;27;20055;-73
2023/04/03 10:49:56;;;;;;;5.53;0.50;;;18.50;96.70;;;;;;5141236;27;20045;-74
2023/04/03 10:52:41;;;;;;;1.52;0.50;;;18.40;96.70;;;;;;5141847;27;20043;-73
2023/04/03 10:55:24;;;;;;;2.10;0.43;;;18.60;96.70;;;;;;5145781;27;20047;-74
2023/04/03 10:57:56;;;;;;;1.85;0.40;;;18.60;96.70;;;;;;5141835;27;20041;-73
2023/04/03 11:00:30;;;;;;;2.25;0.50;;;18.60;96.70;;;;;;5141534;27;20607;-73
2023/04/03 11:03:03;;;;;;;3.88;0.60;;;18.70;96.70;;;;;;5143365;27;20053;-74
2023/04/03 11:05:36;;;;;;;2.42;0.52;;;18.60;96.70;;;;;;5144231;27;20194;-74
2023/04/03 11:08:17;;;;;;;4.45;0.77;;;18.40;96.70;;;;;;5144512;27;20352;-73
2023/04/03 11:10:48;;;;;;;3.88;0.52;;;18.20;96.70;;;;;;5144132;27;20050;-73
2023/04/03 11:13:22;;;;;;;1.20;0.43;;;18.20;96.70;;;;;;5144332;27;20445;-74
2023/04/03 11:15:55;;;;;;;1.02;0.40;;;18.00;96.70;;;;;;5126744;27;20115;-75
2023/04/03 11:18:28;;;;;;;0.65;0.43;;;17.90;96.70;;;;;;5145512;27;20046;-74
2023/04/03 11:21:04;;;;;;;2.05;0.40;;;17.60;96.70;;;;;;5144124;27;20039;-73
2023/04/03 11:23:36;;;;;;;2.75;0.63;;;17.70;96.70;;;;;;5143758;27;20133;-74
2023/04/03 11:26:18;;;;;;;4.13;0.60;;;18.00;96.70;;;;;;5139345;27;20511;-73
2023/04/03 11:28:46;;;;;;;4.45;0.60;;;18.30;96.70;;;;;;5139846;27;20047;-73
2023/04/03 11:31:30;;;;;;;3.38;0.40;;;18.50;96.70;;;;;;5142181;27;20047;-73
2023/04/03 11:34:08;;;;;;;7.15;1.20;;;18.60;96.70;;;;;;5136516;27;20046;-73
2023/04/03 11:36:42;;;;;;;1.05;0.50;;;18.70;96.70;;;;;;5144889;27;20038;-72
2023/04/03 11:39:28;;;;;;;3.38;0.47;;;18.70;96.70;;;;;;5144427;27;20157;-74
2023/04/03 11:42:12;;;;;;;2.08;0.52;;;19.00;96.70;;;;;;5138851;27;20118;-73
2023/04/03 11:44:41;;;;;;;2.97;0.82;;;19.10;96.70;;;;;;5143241;27;20058;-74
2023/04/03 11:47:11;;;;;;;1.23;0.35;;;19.10;96.70;;;;;;5143777;27;20492;-73
2023/04/03 11:49:59;;;;;;;2.83;0.65;;;18.90;96.70;;;;;;5140180;27;20416;-74
2023/04/03 11:52:58;;;;;;;2.58;0.38;;;18.90;96.70;;;;;;5143062;27;20567;-74
2023/04/03 11:55:55;;;;;;;9.40;0.75;;;18.40;96.70;;;;;;5136111;27;20066;-74
2023/04/03 11:58:25;;;;;;;1.58;0.30;;;18.30;96.70;;;;;;5125776;27;20038;-73
2023/04/03 12:00:56;;;;;;;1.27;0.47;;;18.50;96.70;;;;;;5144609;27;20717;-74
2023/04/03 12:04:00;;;;;;;2.08;0.60;;;18.40;96.70;;;;;;5143264;27;20544;-73
2023/04/03 12:07:13;;;;;;;2.03;0.57;;;18.30;96.70;;;;;;5096298;27;20054;-74
2023/04/03 12:10:16;;;;;;;0.68;0.40;;;18.40;96.70;;;;;;5141032;27;20050;-76
2023/04/03 12:13:02;;;;;;;1.63;0.50;;;18.40;96.70;;;;;;5134743;27;20115;-74
2023/04/03 12:15:49;;;;;;;2.60;0.40;;;18.50;96.70;;;;;;5141425;27;20137;-74
2023/04/03 12:18:41;;;;;;;1.25;0.50;;;18.50;96.70;;;;;;5143185;27;20112;-73
2023/04/03 12:21:09;;;;;;;0.65;0.57;;;18.50;96.70;;;;;;5143717;27;20042;-74
2023/04/03 12:24:03;;;;;;;2.42;0.50;;;18.40;96.70;;;;;;5133845;27;20404;-73
2023/04/03 12:26:46;;;;;;;2.65;0.68;;;18.10;96.70;;;;;;5142326;27;20137;-75
2023/04/03 12:29:23;;;;;;;4.03;0.50;;;18.00;96.70;;;;;;5141673;27;20046;-74
2023/04/03 12:32:06;;;;;;;2.40;0.57;;;17.90;96.70;;;;;;5143895;27;20063;-74
2023/04/03 12:34:51;;;;;;;5.05;1.10;;;17.90;96.70;;;;;;5143978;27;20126;-74
2023/04/03 12:37:38;;;;;;;2.13;0.50;;;18.20;96.70;;;;;;5134230;27;20562;-74
2023/04/03 12:40:15;;;;;;;1.05;0.40;;;18.30;96.70;;;;;;5144008;27;20043;-75
2023/04/03 12:43:10;;;;;;;1.38;0.65;;;18.50;96.70;;;;;;5143451;27;20461;-74
2023/04/03 12:45:44;;;;;;;0.73;0.47;;;18.70;96.70;;;;;;5135268;27;20125;-73
2023/04/03 12:48:15;;;;;;;1.63;0.38;;;18.80;96.70;;;;;;5138915;27;20112;-74
2023/04/03 12:50:45;;;;;;;1.92;0.52;;;19.10;96.70;;;;;;5140186;27;20125;-74
2023/04/03 12:53:17;;;;;;;0.82;0.40;;;19.00;96.70;;;;;;5140660;27;20034;-74
2023/04/03 12:55:45;;;;;;;4.63;0.57;;;18.60;96.70;;;;;;5142036;27;20069;-75
2023/04/03 12:58:16;;;;;;;1.48;0.40;;;18.30;96.70;;;;;;5142057;27;20576;-74
2023/04/03 13:00:45;;;;;;;1.75;0.45;;;18.00;96.70;;;;;;5143676;27;20035;-74
2023/04/03 13:03:24;;;;;;;1.55;0.40;;;18.60;96.70;;;;;;5142241;27;20039;-74
2023/04/03 13:05:52;;;;;;;0.80;0.28;;;19.00;96.70;;;;;;5135047;27;20038;-74
2023/04/03 13:08:22;;;;;;;0.40;0.30;;;18.90;96.70;;;;;;5143887;27;20047;-74
2023/04/03 13:10:55;;;;;;;1.15;0.47;;;18.90;96.70;;;;;;5141771;27;20054;-74
2023/04/03 13:13:23;;;;;;;1.73;0.40;;;19.00;96.70;;;;;;5124154;27;20908;-74
2023/04/03 13:15:54;;;;;;;2.47;0.65;;;19.20;96.70;;;;;;5143205;27;20118;-74